Time;durP1;ratioP1;P1;durP2;ratioP2;P2;SDS_P1;SDS_P2;PMS_P1;PMS_P2;Temp;Humidity;BMP_temperature;BMP_pressure;BME280_temperature;BME280_humidity;BME280_pressure;Samples;Min_cycle;Max_cycle;Signal;HPM_P1;HPM_P2
2023/07/01 00:00:18;;;;;;;;;;;26.20;50.60;;;;;;4911898;29;19919;-92
2023/07/01 00:02:43;;;;;;;;;;;26.20;50.60;;;;;;4904830;29;19911;-92
2023/07/01 00:05:09;;;;;;;;;;;26.20;50.60;;;;;;4904412;29;20272;-91
2023/07/01 00:07:34;;;;;;;;;;;26.20;50.60;;;;;;4898714;29;19943;-91
2023/07/01 00:10:01;;;;;;;;;;;26.10;50.50;;;;;;4893176;29;19912;-92
2023/07/01 00:12:26;;;;;;;;;;;26.10;50.50;;;;;;4899458;29;19911;-91
2023/07/01 00:14:52;;;;;;;;;;;26.10;50.50;;;;;;4903488;29;19918;-91
2023/07/01 00:17:18;;;;;;;;;;;26.10;50.50;;;;;;4902425;29;19926;-91
2023/07/01 00:19:43;;;;;;;;;;;26.10;50.50;;;;;;4909138;29;19911;-91
2023/07/01 00:22:09;;;;;;;;;;;26.10;50.50;;;;;;4900807;29;19922;-91
2023/07/01 00:24:34;;;;;;;;;;;26.10;50.50;;;;;;4898972;29;20292;-91
2023/07/01 00:27:03;;;;;;;;;;;26.10;50.50;;;;;;4900446;29;19912;-91
2023/07/01 00:29:29;;;;;;;;;;;26.10;50.50;;;;;;4898277;29;19911;-91
2023/07/01 00:31:54;;;;;;;;;;;26.10;50.50;;;;;;4900323;29;19915;-91
2023/07/01 00:34:20;;;;;;;;;;;26.10;50.50;;;;;;4898076;29;19919;-90
2023/07/01 00:36:45;;;;;;;;;;;26.10;50.50;;;;;;4899393;29;19939;-91
2023/07/01 00:39:14;;;;;;;;;;;26.00;50.40;;;;;;4897632;29;19919;-91
2023/07/01 00:41:39;;;;;;;;;;;26.00;50.50;;;;;;4905147;29;19915;-90
2023/07/01 00:44:05;;;;;;;;;;;26.00;50.40;;;;;;4905996;29;20162;-91
2023/07/01 00:46:32;;;;;;;;;;;26.00;50.40;;;;;;4898761;29;19923;-92
2023/07/01 00:48:58;;;;;;;;;;;26.00;50.50;;;;;;4901179;29;19911;-91
2023/07/01 00:51:24;;;;;;;;;;;25.90;50.40;;;;;;4901630;29;19986;-90
2023/07/01 00:53:49;;;;;;;;;;;25.90;50.40;;;;;;4897709;29;19911;-91
2023/07/01 00:56:15;;;;;;;;;;;25.90;50.40;;;;;;4909212;29;19911;-90
2023/07/01 00:58:41;;;;;;;;;;;25.90;50.30;;;;;;4899621;29;19934;-91
2023/07/01 01:01:09;;;;;;;;;;;25.90;50.40;;;;;;4896886;29;20054;-90
2023/07/01 01:03:35;;;;;;;;;;;25.90;50.40;;;;;;4897937;29;19942;-91
2023/07/01 01:06:04;;;;;;;;;;;25.90;50.40;;;;;;4892197;29;20843;-91
2023/07/01 01:08:39;;;;;;;;;;;25.90;50.30;;;;;;4907956;29;19918;-91
2023/07/01 01:11:05;;;;;;;;;;;25.90;50.30;;;;;;4891324;29;19919;-91
2023/07/01 01:13:31;;;;;;;;;;;25.90;50.30;;;;;;4894772;29;19916;-91
2023/07/01 01:16:00;;;;;;;;;;;25.90;50.30;;;;;;4899386;29;20022;-90
2023/07/01 01:18:31;;;;;;;;;;;25.90;50.30;;;;;;4900378;29;19919;-91
2023/07/01 01:20:56;;;;;;;;;;;25.90;50.30;;;;;;4900639;29;19915;-92
2023/07/01 01:23:26;;;;;;;;;;;25.90;50.30;;;;;;4895588;29;19911;-90
2023/07/01 01:25:52;;;;;;;;;;;25.90;50.30;;;;;;4909590;29;19912;-91
2023/07/01 01:28:17;;;;;;;;;;;25.80;50.20;;;;;;4909917;29;19911;-91
2023/07/01 01:30:43;;;;;;;;;;;25.80;50.20;;;;;;4913403;29;19919;-91
2023/07/01 01:33:09;;;;;;;;;;;25.80;50.20;;;;;;4898195;29;19911;-91
2023/07/01 01:35:34;;;;;;;;;;;25.80;50.20;;;;;;4905257;29;19912;-91
2023/07/01 01:38:09;;;;;;;;;;;25.80;50.20;;;;;;4905399;29;19996;-91
2023/07/01 01:40:43;;;;;;;;;;;25.80;50.30;;;;;;4901758;29;19915;-91
2023/07/01 01:43:11;;;;;;;;;;;25.80;50.30;;;;;;4896897;29;20318;-91
2023/07/01 01:45:37;;;;;;;;;;;25.80;50.20;;;;;;4911060;29;19914;-91
2023/07/01 01:48:04;;;;;;;;;;;25.70;50.20;;;;;;4904524;29;19942;-90
2023/07/01 01:50:31;;;;;;;;;;;25.70;50.20;;;;;;4909587;29;19992;-92
2023/07/01 01:52:58;;;;;;;;;;;25.70;50.20;;;;;;4903514;29;19911;-91
2023/07/01 01:55:24;;;;;;;;;;;25.70;50.20;;;;;;4902586;29;19915;-91
2023/07/01 01:57:51;;;;;;;;;;;25.70;50.20;;;;;;4902059;29;19919;-91
2023/07/01 02:00:16;;;;;;;;;;;25.70;50.10;;;;;;4901516;29;19915;-91
2023/07/01 02:02:42;;;;;;;;;;;25.70;50.20;;;;;;4901838;29;19934;-90
2023/07/01 02:05:08;;;;;;;;;;;25.70;50.10;;;;;;4901561;29;19951;-91
2023/07/01 02:07:34;;;;;;;;;;;25.70;50.10;;;;;;4900848;29;19975;-91
2023/07/01 02:09:59;;;;;;;;;;;25.70;50.10;;;;;;4902377;29;19922;-90
2023/07/01 02:12:26;;;;;;;;;;;25.70;50.10;;;;;;4903079;29;19911;-91
2023/07/01 02:14:51;;;;;;;;;;;25.70;50.20;;;;;;4904291;29;19947;-91
2023/07/01 02:17:17;;;;;;;;;;;25.70;50.10;;;;;;4900661;29;19969;-90
2023/07/01 02:19:42;;;;;;;;;;;25.60;50.10;;;;;;4901074;29;19911;-91
2023/07/01 02:22:08;;;;;;;;;;;25.60;50.10;;;;;;4900444;29;19916;-90
2023/07/01 02:24:34;;;;;;;;;;;25.60;50.10;;;;;;4900212;29;19911;-90
2023/07/01 02:27:00;;;;;;;;;;;25.60;50.10;;;;;;4900706;29;19911;-91
2023/07/01 02:29:26;;;;;;;;;;;25.60;50.10;;;;;;4900312;29;19943;-91
2023/07/01 02:31:51;;;;;;;;;;;25.60;50.10;;;;;;4901349;29;19919;-91
2023/07/01 02:34:23;;;;;;;;;;;25.60;50.10;;;;;;4900393;29;20007;-91
2023/07/01 02:36:49;;;;;;;;;;;25.60;50.10;;;;;;4896619;29;19912;-91
2023/07/01 02:39:15;;;;;;;;;;;25.60;50.10;;;;;;4893850;29;19911;-91
2023/07/01 02:41:40;;;;;;;;;;;25.60;50.10;;;;;;4902172;29;19915;-91
2023/07/01 02:44:06;;;;;;;;;;;25.60;50.10;;;;;;4901289;29;19942;-91
2023/07/01 02:46:31;;;;;;;;;;;25.60;50.10;;;;;;4902229;29;20119;-90
2023/07/01 02:48:57;;;;;;;;;;;25.60;50.10;;;;;;4910828;29;19912;-91
2023/07/01 02:51:23;;;;;;;;;;;25.60;50.10;;;;;;4898317;29;19990;-91
2023/07/01 02:53:49;;;;;;;;;;;25.50;50.10;;;;;;4900852;29;20119;-91
2023/07/01 02:56:14;;;;;;;;;;;25.50;50.10;;;;;;4901495;29;19922;-90
2023/07/01 02:58:40;;;;;;;;;;;25.50;50.10;;;;;;4902231;29;19919;-91
2023/07/01 03:01:05;;;;;;;;;;;25.50;50.10;;;;;;4900918;29;20175;-91
2023/07/01 03:03:31;;;;;;;;;;;25.50;50.10;;;;;;4900794;29;19923;-91
2023/07/01 03:05:57;;;;;;;;;;;25.50;50.10;;;;;;4908424;29;20292;-91
2023/07/01 03:08:23;;;;;;;;;;;25.50;50.10;;;;;;4899685;29;19915;-92
2023/07/01 03:10:48;;;;;;;;;;;25.50;50.10;;;;;;4901593;29;19942;-91
2023/07/01 03:13:16;;;;;;;;;;;25.40;50.00;;;;;;4900804;29;19961;-91
2023/07/01 03:15:41;;;;;;;;;;;25.40;50.00;;;;;;4900543;29;19915;-90
2023/07/01 03:18:07;;;;;;;;;;;25.40;50.00;;;;;;4903241;29;19934;-91
2023/07/01 03:20:33;;;;;;;;;;;25.40;50.00;;;;;;4900905;29;20181;-90
2023/07/01 03:22:59;;;;;;;;;;;25.50;50.10;;;;;;4900635;29;19915;-91
2023/07/01 03:25:26;;;;;;;;;;;25.40;50.00;;;;;;4900893;29;19974;-90
2023/07/01 03:27:51;;;;;;;;;;;25.40;50.00;;;;;;4901963;29;19911;-91
2023/07/01 03:30:20;;;;;;;;;;;25.40;50.00;;;;;;4908273;29;19946;-91
2023/07/01 03:32:46;;;;;;;;;;;25.40;50.00;;;;;;4901342;29;19912;-91
2023/07/01 03:35:12;;;;;;;;;;;25.40;50.00;;;;;;4906906;29;19939;-91
2023/07/01 03:37:38;;;;;;;;;;;25.40;50.00;;;;;;4893858;29;20007;-90
2023/07/01 03:40:04;;;;;;;;;;;25.40;50.00;;;;;;4908443;29;19915;-92
2023/07/01 03:42:30;;;;;;;;;;;25.40;50.00;;;;;;4892133;29;19911;-90
2023/07/01 03:45:05;;;;;;;;;;;25.40;50.00;;;;;;4900951;29;20131;-91
2023/07/01 03:47:31;;;;;;;;;;;25.40;50.00;;;;;;4901375;29;20269;-91
2023/07/01 03:49:56;;;;;;;;;;;25.40;50.00;;;;;;4899433;29;19912;-91
2023/07/01 03:52:22;;;;;;;;;;;25.40;50.10;;;;;;4897565;29;19975;-91
2023/07/01 03:54:48;;;;;;;;;;;25.40;50.00;;;;;;4893060;29;19945;-91
2023/07/01 03:57:16;;;;;;;;;;;25.40;50.10;;;;;;4899668;29;19954;-91
2023/07/01 03:59:42;;;;;;;;;;;25.30;50.00;;;;;;4897827;29;19919;-92
2023/07/01 04:02:07;;;;;;;;;;;25.30;50.00;;;;;;4898901;29;19969;-90
2023/07/01 04:04:33;;;;;;;;;;;25.30;50.00;;;;;;4899728;29;19951;-91
2023/07/01 04:06:58;;;;;;;;;;;25.30;50.00;;;;;;4899048;29;19922;-91
2023/07/01 04:09:24;;;;;;;;;;;25.30;50.00;;;;;;4900446;29;20287;-91
2023/07/01 04:11:51;;;;;;;;;;;25.30;50.00;;;;;;4898658;29;19947;-91
2023/07/01 04:14:18;;;;;;;;;;;25.30;50.00;;;;;;4900293;29;19978;-90
2023/07/01 04:16:44;;;;;;;;;;;25.30;50.00;;;;;;4909937;29;20062;-91
2023/07/01 04:19:10;;;;;;;;;;;25.30;50.00;;;;;;4900914;29;20307;-91
2023/07/01 04:21:35;;;;;;;;;;;25.30;50.00;;;;;;4901543;29;19915;-91
2023/07/01 04:24:04;;;;;;;;;;;25.30;50.00;;;;;;4898599;29;20347;-90
2023/07/01 04:26:30;;;;;;;;;;;25.30;50.00;;;;;;4891931;29;19923;-90
2023/07/01 04:28:55;;;;;;;;;;;25.30;50.00;;;;;;4901167;29;19912;-91
2023/07/01 04:31:22;;;;;;;;;;;25.30;50.00;;;;;;4898535;29;19919;-90
2023/07/01 04:33:47;;;;;;;;;;;25.30;50.00;;;;;;4900759;29;19919;-91
2023/07/01 04:36:18;;;;;;;;;;;25.30;50.00;;;;;;4899915;29;19915;-91
2023/07/01 04:38:43;;;;;;;;;;;25.30;50.00;;;;;;4899278;29;19911;-92
2023/07/01 04:41:15;;;;;;;;;;;25.30;50.00;;;;;;4899510;29;19923;-92
2023/07/01 04:43:44;;;;;;;;;;;25.20;49.90;;;;;;4899980;29;19911;-92
2023/07/01 04:46:09;;;;;;;;;;;25.30;50.00;;;;;;4903932;29;20248;-91
2023/07/01 04:48:35;;;;;;;;;;;25.30;49.90;;;;;;4910787;29;20018;-90
2023/07/01 04:51:01;;;;;;;;;;;25.30;49.90;;;;;;4892009;29;19982;-90
2023/07/01 04:53:26;;;;;;;;;;;25.20;49.90;;;;;;4908917;29;19948;-91
2023/07/01 04:55:52;;;;;;;;;;;25.20;49.90;;;;;;4899093;29;19919;-91
2023/07/01 04:58:21;;;;;;;;;;;25.20;49.90;;;;;;4899158;29;20137;-91
2023/07/01 05:00:50;;;;;;;;;;;25.20;49.90;;;;;;4897345;29;19916;-92
2023/07/01 05:03:19;;;;;;;;;;;25.30;49.90;;;;;;4898820;29;19922;-89
2023/07/01 05:05:50;;;;;;;;;;;25.30;49.90;;;;;;4900458;29;19987;-90
2023/07/01 05:08:19;;;;;;;;;;;25.20;49.90;;;;;;4888825;29;20097;-90
2023/07/01 05:10:45;;;;;;;;;;;25.20;49.90;;;;;;4905510;29;20403;-90
2023/07/01 05:13:11;;;;;;;;;;;25.20;49.80;;;;;;4898270;29;20513;-90
2023/07/01 05:15:37;;;;;;;;;;;25.20;49.80;;;;;;4899870;29;19974;-92
2023/07/01 05:18:03;;;;;;;;;;;25.20;49.80;;;;;;4898176;29;19966;-91
2023/07/01 05:20:28;;;;;;;;;;;25.20;49.80;;;;;;4899372;29;19990;-90
2023/07/01 05:22:54;;;;;;;;;;;25.20;49.80;;;;;;4897089;29;19912;-91
2023/07/01 05:25:20;;;;;;;;;;;25.20;49.80;;;;;;4898475;29;19911;-90
2023/07/01 05:27:45;;;;;;;;;;;25.30;49.80;;;;;;4898565;29;20208;-90
2023/07/01 05:30:29;;;;;;;;;;;25.30;49.80;;;;;;4899148;29;20280;-93
2023/07/01 05:33:00;;;;;;;;;;;25.30;49.80;;;;;;4898981;29;20341;-92
2023/07/01 05:35:25;;;;;;;;;;;25.30;49.70;;;;;;4901324;29;20010;-91
2023/07/01 05:37:59;;;;;;;;;;;25.40;49.70;;;;;;4898671;29;20002;-91
2023/07/01 05:40:25;;;;;;;;;;;25.40;49.70;;;;;;4900272;29;20184;-92
2023/07/01 05:42:51;;;;;;;;;;;25.40;49.60;;;;;;4901632;29;19915;-91
2023/07/01 05:45:20;;;;;;;;;;;25.40;49.60;;;;;;4911432;29;20099;-92
2023/07/01 05:47:45;;;;;;;;;;;25.40;49.60;;;;;;4897377;29;19911;-90
2023/07/01 05:50:11;;;;;;;;;;;25.40;49.60;;;;;;4899805;29;19997;-91
2023/07/01 05:52:36;;;;;;;;;;;25.40;49.60;;;;;;4898245;29;19917;-91
2023/07/01 05:55:02;;;;;;;;;;;25.40;49.60;;;;;;4897587;29;19920;-90
2023/07/01 05:57:28;;;;;;;;;;;25.40;49.60;;;;;;4897615;29;19922;-91
2023/07/01 05:59:53;;;;;;;;;;;25.40;49.60;;;;;;4907725;29;20063;-90
2023/07/01 06:02:19;;;;;;;;;;;25.40;49.60;;;;;;4898786;29;19922;-92
2023/07/01 06:04:45;;;;;;;;;;;25.40;49.60;;;;;;4900069;29;19919;-91
2023/07/01 06:07:10;;;;;;;;;;;25.40;49.60;;;;;;4899256;29;19912;-92
2023/07/01 06:09:36;;;;;;;;;;;25.40;49.60;;;;;;4901854;29;19907;-91
2023/07/01 06:12:05;;;;;;;;;;;25.40;49.50;;;;;;4898249;29;19919;-91
2023/07/01 06:14:40;;;;;;;;;;;25.40;49.60;;;;;;4910214;29;19919;-92
2023/07/01 06:17:06;;;;;;;;;;;25.40;49.50;;;;;;4897729;29;19986;-91
2023/07/01 06:19:37;;;;;;;;;;;25.40;50.00;;;;;;4899316;29;19919;-92
2023/07/01 06:22:02;;;;;;;;;;;25.40;49.50;;;;;;4899111;29;20298;-92
2023/07/01 06:24:28;;;;;;;;;;;25.40;49.50;;;;;;4902900;29;20249;-91
2023/07/01 06:26:53;;;;;;;;;;;25.40;49.50;;;;;;4901605;29;20002;-91
2023/07/01 06:29:23;;;;;;;;;;;25.40;49.50;;;;;;4901261;29;19918;-93
2023/07/01 06:31:49;;;;;;;;;;;25.40;49.50;;;;;;4898648;29;19989;-91
2023/07/01 06:34:17;;;;;;;;;;;25.40;49.60;;;;;;4899915;29;20018;-91
2023/07/01 06:36:52;;;;;;;;;;;25.40;49.50;;;;;;4902500;29;20260;-91
2023/07/01 06:39:20;;;;;;;;;;;25.40;49.60;;;;;;4905310;29;19911;-91
2023/07/01 06:41:49;;;;;;;;;;;25.40;49.60;;;;;;4891852;29;20267;-91
2023/07/01 06:44:15;;;;;;;;;;;25.40;49.60;;;;;;4899344;29;19919;-91
2023/07/01 06:46:40;;;;;;;;;;;25.40;49.60;;;;;;4898630;29;20248;-91
2023/07/01 06:49:06;;;;;;;;;;;25.30;49.50;;;;;;4902067;29;19911;-91
2023/07/01 06:51:31;;;;;;;;;;;25.30;49.60;;;;;;4899726;29;19923;-91
2023/07/01 06:53:57;;;;;;;;;;;25.30;49.60;;;;;;4902141;29;20332;-91
2023/07/01 06:56:22;;;;;;;;;;;25.30;49.60;;;;;;4899764;29;20077;-90
2023/07/01 06:58:48;;;;;;;;;;;25.40;49.60;;;;;;4891112;29;19912;-90
2023/07/01 07:01:13;;;;;;;;;;;25.30;49.60;;;;;;4898685;29;19986;-91
2023/07/01 07:03:40;;;;;;;;;;;25.30;49.60;;;;;;4907459;29;20222;-91
2023/07/01 07:06:06;;;;;;;;;;;25.30;49.60;;;;;;4903213;29;19911;-91
2023/07/01 07:08:32;;;;;;;;;;;25.30;49.60;;;;;;4896365;29;19922;-92
2023/07/01 07:10:57;;;;;;;;;;;25.30;49.60;;;;;;4894574;29;20192;-92
2023/07/01 07:13:24;;;;;;;;;;;25.30;49.60;;;;;;4896020;29;19911;-91
2023/07/01 07:15:50;;;;;;;;;;;25.30;49.60;;;;;;4897608;29;20074;-91
2023/07/01 07:18:15;;;;;;;;;;;25.30;49.60;;;;;;4894153;29;20107;-91
2023/07/01 07:20:41;;;;;;;;;;;25.30;49.50;;;;;;4905967;29;19927;-90
2023/07/01 07:23:06;;;;;;;;;;;25.30;49.50;;;;;;4895647;29;19975;-90
2023/07/01 07:25:32;;;;;;;;;;;25.40;49.60;;;;;;4894998;29;19916;-90
2023/07/01 07:27:58;;;;;;;;;;;25.30;49.50;;;;;;4898640;29;19998;-91
2023/07/01 07:30:24;;;;;;;;;;;25.30;49.60;;;;;;4896649;29;20240;-89
2023/07/01 07:32:49;;;;;;;;;;;25.30;49.60;;;;;;4897299;29;19990;-91
2023/07/01 07:35:15;;;;;;;;;;;25.30;49.60;;;;;;4893837;29;20223;-91
2023/07/01 07:37:44;;;;;;;;;;;25.30;49.60;;;;;;4902353;29;19919;-91
2023/07/01 07:40:10;;;;;;;;;;;25.30;49.60;;;;;;4901338;29;20187;-90
2023/07/01 07:42:36;;;;;;;;;;;25.30;49.60;;;;;;4898758;29;19915;-90
2023/07/01 07:45:03;;;;;;;;;;;25.30;49.60;;;;;;4903779;29;19915;-92
2023/07/01 07:47:28;;;;;;;;;;;25.30;49.60;;;;;;4892993;29;19918;-91
2023/07/01 07:49:54;;;;;;;;;;;25.30;49.60;;;;;;4897201;29;19911;-91
2023/07/01 07:52:19;;;;;;;;;;;25.30;49.60;;;;;;4895243;29;20157;-92
2023/07/01 07:54:46;;;;;;;;;;;25.30;49.60;;;;;;4892942;29;19911;-91
2023/07/01 07:57:13;;;;;;;;;;;25.30;50.00;;;;;;4884172;29;19911;-91
2023/07/01 07:59:43;;;;;;;;;;;25.30;49.60;;;;;;4894261;29;19922;-92
2023/07/01 08:02:09;;;;;;;;;;;25.30;49.60;;;;;;4893261;29;20216;-91
2023/07/01 08:04:38;;;;;;;;;;;25.30;49.60;;;;;;4894881;29;20002;-92
2023/07/01 08:07:03;;;;;;;;;;;25.30;49.50;;;;;;4897184;29;20138;-91
2023/07/01 08:09:29;;;;;;;;;;;25.40;49.60;;;;;;4897300;29;20199;-90
2023/07/01 08:11:58;;;;;;;;;;;25.40;49.60;;;;;;4895467;29;19911;-91
2023/07/01 08:14:24;;;;;;;;;;;25.40;49.50;;;;;;4897722;29;20249;-90
2023/07/01 08:16:52;;;;;;;;;;;25.40;49.50;;;;;;4895311;29;19926;-91
2023/07/01 08:19:18;;;;;;;;;;;25.40;49.50;;;;;;4897899;29;19922;-91
2023/07/01 08:21:43;;;;;;;;;;;25.40;49.50;;;;;;4893231;29;19916;-92
2023/07/01 08:24:09;;;;;;;;;;;25.40;49.50;;;;;;4895256;29;19912;-91
2023/07/01 08:26:36;;;;;;;;;;;25.40;49.50;;;;;;4899910;29;19919;-91
2023/07/01 08:29:02;;;;;;;;;;;25.40;49.50;;;;;;4892759;29;19915;-91
2023/07/01 08:31:31;;;;;;;;;;;25.50;49.50;;;;;;4896476;29;20127;-91
2023/07/01 08:33:57;;;;;;;;;;;25.50;49.40;;;;;;4893916;29;19918;-91
2023/07/01 08:36:24;;;;;;;;;;;25.60;49.40;;;;;;4888553;29;19911;-91
2023/07/01 08:38:49;;;;;;;;;;;25.60;49.30;;;;;;4894959;29;19911;-92
2023/07/01 08:41:15;;;;;;;;;;;25.60;49.40;;;;;;4894956;29;20222;-91
2023/07/01 08:43:42;;;;;;;;;;;25.60;49.40;;;;;;4910152;29;19950;-92
2023/07/01 08:46:09;;;;;;;;;;;25.60;49.40;;;;;;4895810;29;19912;-91
2023/07/01 08:48:37;;;;;;;;;;;25.60;49.40;;;;;;4895180;29;19919;-93
2023/07/01 08:51:02;;;;;;;;;;;25.60;49.40;;;;;;4892161;29;19918;-91
2023/07/01 08:53:28;;;;;;;;;;;25.60;49.40;;;;;;4900012;29;19916;-93
2023/07/01 08:55:54;;;;;;;;;;;25.60;49.40;;;;;;4899899;29;19911;-93
2023/07/01 08:58:20;;;;;;;;;;;25.60;49.30;;;;;;4894420;29;20196;-92
2023/07/01 09:00:45;;;;;;;;;;;25.60;49.30;;;;;;4895926;29;19930;-91
2023/07/01 09:03:12;;;;;;;;;;;25.60;49.30;;;;;;4892726;29;20077;-93
2023/07/01 09:05:37;;;;;;;;;;;25.70;49.30;;;;;;4892348;29;19912;-92
2023/07/01 09:08:03;;;;;;;;;;;25.60;49.30;;;;;;4893294;29;19911;-92
2023/07/01 09:10:29;;;;;;;;;;;25.60;49.30;;;;;;4896351;29;20331;-92
2023/07/01 09:12:54;;;;;;;;;;;25.70;49.30;;;;;;4894247;29;19911;-92
2023/07/01 09:15:20;;;;;;;;;;;25.70;49.30;;;;;;4894673;29;19912;-93
2023/07/01 09:17:46;;;;;;;;;;;25.70;49.30;;;;;;4895468;29;20275;-91
2023/07/01 09:20:12;;;;;;;;;;;25.70;49.30;;;;;;4895302;29;20188;-93
2023/07/01 09:22:43;;;;;;;;;;;25.70;49.20;;;;;;4892780;29;20011;-92
2023/07/01 09:25:09;;;;;;;;;;;25.70;49.20;;;;;;4893871;29;19915;-92
2023/07/01 09:27:48;;;;;;;;;;;25.70;49.30;;;;;;4895022;29;19912;-92
2023/07/01 09:30:20;;;;;;;;;;;25.60;49.30;;;;;;4891814;29;19998;-92
2023/07/01 09:32:46;;;;;;;;;;;25.60;49.30;;;;;;4896727;29;19912;-92
2023/07/01 09:35:12;;;;;;;;;;;25.70;49.40;;;;;;4888253;29;20277;-92
2023/07/01 09:37:38;;;;;;;;;;;25.70;49.40;;;;;;4893470;29;19915;-92
2023/07/01 09:40:20;;;;;;;;;;;25.70;49.40;;;;;;4898673;29;19954;-92
2023/07/01 09:42:49;;;;;;;;;;;25.70;49.40;;;;;;4892490;29;19911;-92
2023/07/01 09:45:15;;;;;;;;;;;25.80;49.40;;;;;;4896434;29;20374;-91
2023/07/01 09:47:41;;;;;;;;;;;25.80;49.30;;;;;;4896854;29;19911;-93
2023/07/01 09:50:23;;;;;;;;;;;25.80;49.30;;;;;;4895014;29;19911;-92
2023/07/01 09:52:54;;;;;;;;;;;25.80;49.30;;;;;;4890782;29;19973;-91
2023/07/01 09:55:20;;;;;;;;;;;25.80;49.30;;;;;;4896163;29;19942;-92
2023/07/01 09:57:46;;;;;;;;;;;25.80;49.30;;;;;;4896441;29;20188;-92
2023/07/01 10:00:15;;;;;;;;;;;25.80;49.30;;;;;;4893316;29;19983;-91
2023/07/01 10:02:42;;;;;;;;;;;25.70;49.40;;;;;;4895874;29;19911;-93
2023/07/01 10:05:08;;;;;;;;;;;25.70;49.40;;;;;;4898957;29;19915;-93
2023/07/01 10:07:34;;;;;;;;;;;25.70;49.40;;;;;;4895368;29;20461;-92
2023/07/01 10:10:00;;;;;;;;;;;25.70;49.50;;;;;;4894346;29;19919;-92
2023/07/01 10:12:26;;;;;;;;;;;25.70;49.50;;;;;;4897645;29;19918;-92
2023/07/01 10:14:55;;;;;;;;;;;25.70;49.60;;;;;;4899999;29;19911;-92
2023/07/01 10:17:21;;;;;;;;;;;25.70;49.60;;;;;;4896503;29;19920;-91
2023/07/01 10:19:47;;;;;;;;;;;25.70;49.60;;;;;;4895632;29;19922;-91
2023/07/01 10:22:23;;;;;;;;;;;25.70;49.50;;;;;;4889876;29;19915;-93
2023/07/01 10:25:01;;;;;;;;;;;25.70;49.50;;;;;;4892472;29;20287;-92
2023/07/01 10:27:39;;;;;;;;;;;25.70;49.90;;;;;;4904546;29;20317;-92
2023/07/01 10:30:05;;;;;;;;;;;25.70;49.60;;;;;;4905808;29;19911;-92
2023/07/01 10:32:31;;;;;;;;;;;25.70;49.60;;;;;;4892288;29;20165;-92
2023/07/01 10:34:58;;;;;;;;;;;25.80;49.60;;;;;;4893673;29;20208;-91
2023/07/01 10:37:26;;;;;;;;;;;25.70;49.60;;;;;;4904660;29;19979;-91
2023/07/01 10:39:59;;;;;;;;;;;25.80;49.60;;;;;;4894797;29;19978;-92
2023/07/01 10:42:32;;;;;;;;;;;25.80;49.60;;;;;;4897042;29;20236;-92
2023/07/01 10:45:09;;;;;;;;;;;25.90;49.60;;;;;;4896051;29;20006;-92
2023/07/01 10:47:35;;;;;;;;;;;25.90;49.60;;;;;;4903857;29;19948;-91
2023/07/01 10:50:02;;;;;;;;;;;25.90;49.60;;;;;;4897801;29;19911;-92
2023/07/01 10:52:28;;;;;;;;;;;25.90;49.60;;;;;;4898886;29;19916;-92
2023/07/01 10:54:56;;;;;;;;;;;25.90;49.50;;;;;;4899341;29;19950;-92
2023/07/01 10:57:21;;;;;;;;;;;25.90;49.60;;;;;;4897171;29;20026;-92
2023/07/01 10:59:47;;;;;;;;;;;25.90;49.60;;;;;;4895514;29;19922;-92
2023/07/01 11:02:31;;;;;;;;;;;25.90;49.60;;;;;;4904411;29;19919;-92
2023/07/01 11:05:04;;;;;;;;;;;25.90;49.60;;;;;;4891785;29;19911;-93
2023/07/01 11:07:31;;;;;;;;;;;26.00;49.60;;;;;;4889051;29;19919;-93
2023/07/01 11:10:00;;;;;;;;;;;26.00;49.60;;;;;;4893843;29;20316;-94
2023/07/01 11:12:39;;;;;;;;;;;26.00;49.60;;;;;;4883858;29;20576;-93
2023/07/01 11:15:16;;;;;;;;;;;26.00;49.60;;;;;;4900429;29;19938;-93
2023/07/01 11:17:56;;;;;;;;;;;26.00;49.60;;;;;;4905457;29;20335;-93
2023/07/01 11:20:49;;;;;;;;;;;26.00;49.60;;;;;;4895817;29;19919;-92
2023/07/01 11:23:15;;;;;;;;;;;26.10;49.70;;;;;;4897361;29;19950;-92
2023/07/01 11:25:43;;;;;;;;;;;26.10;49.70;;;;;;4893202;29;19957;-93
2023/07/01 11:28:08;;;;;;;;;;;26.10;49.70;;;;;;4896666;29;20162;-93
2023/07/01 11:30:34;;;;;;;;;;;26.10;49.70;;;;;;4893845;29;19975;-92
2023/07/01 11:33:23;;;;;;;;;;;26.10;49.80;;;;;;4895798;29;19915;-92
2023/07/01 11:35:50;;;;;;;;;;;26.00;49.80;;;;;;4896086;29;19923;-94
2023/07/01 11:38:22;;;;;;;;;;;26.00;49.80;;;;;;4893668;29;19955;-92
2023/07/01 11:40:47;;;;;;;;;;;25.90;49.80;;;;;;4894015;29;20125;-93
2023/07/01 11:43:14;;;;;;;;;;;25.90;49.90;;;;;;4895665;29;20207;-92
2023/07/01 11:45:46;;;;;;;;;;;25.90;49.90;;;;;;4892957;29;20006;-92
2023/07/01 11:48:11;;;;;;;;;;;25.90;50.00;;;;;;4892598;29;19924;-92
2023/07/01 11:50:50;;;;;;;;;;;25.90;50.00;;;;;;4895483;29;19926;-92
2023/07/01 11:53:16;;;;;;;;;;;25.90;50.00;;;;;;4891785;29;19911;-92
2023/07/01 11:55:41;;;;;;;;;;;25.80;50.00;;;;;;4901883;29;20085;-92
2023/07/01 11:58:25;;;;;;;;;;;25.80;50.00;;;;;;4893162;29;19915;-92
2023/07/01 12:00:51;;;;;;;;;;;25.80;50.00;;;;;;4885857;29;19930;-92
2023/07/01 12:03:17;;;;;;;;;;;25.80;50.00;;;;;;4890740;29;19911;-92
2023/07/01 12:05:43;;;;;;;;;;;25.80;50.10;;;;;;4887102;29;20203;-93
2023/07/01 12:08:09;;;;;;;;;;;25.80;50.10;;;;;;4892177;29;19915;-92
2023/07/01 12:10:38;;;;;;;;;;;25.80;50.10;;;;;;4890333;29;19959;-92
2023/07/01 12:13:04;;;;;;;;;;;25.80;50.10;;;;;;4899509;29;19915;-92
2023/07/01 12:15:31;;;;;;;;;;;25.80;50.10;;;;;;4892300;29;19975;-91
2023/07/01 12:18:15;;;;;;;;;;;25.80;50.10;;;;;;4893505;29;19919;-92
2023/07/01 12:20:41;;;;;;;;;;;25.80;50.10;;;;;;4901580;29;19923;-91
2023/07/01 12:23:06;;;;;;;;;;;25.70;50.10;;;;;;4890253;29;19912;-91
2023/07/01 12:25:32;;;;;;;;;;;25.80;50.20;;;;;;4889042;29;19911;-91
2023/07/01 12:27:58;;;;;;;;;;;25.80;50.20;;;;;;4893714;29;19990;-91
2023/07/01 12:30:23;;;;;;;;;;;25.70;50.20;;;;;;4887940;29;20352;-91
2023/07/01 12:32:50;;;;;;;;;;;25.70;50.30;;;;;;4892722;29;19959;-91
2023/07/01 12:35:17;;;;;;;;;;;25.70;50.30;;;;;;4890161;29;20256;-91
2023/07/01 12:37:43;;;;;;;;;;;25.70;50.30;;;;;;4881080;29;19911;-91
2023/07/01 12:40:08;;;;;;;;;;;25.70;50.30;;;;;;4893533;29;19979;-91
2023/07/01 12:42:35;;;;;;;;;;;25.70;50.30;;;;;;4888454;29;19919;-91
2023/07/01 12:45:01;;;;;;;;;;;25.70;50.30;;;;;;4889636;29;19911;-92
2023/07/01 12:47:26;;;;;;;;;;;25.70;50.30;;;;;;4892784;29;19922;-92
2023/07/01 12:49:52;;;;;;;;;;;25.70;50.30;;;;;;4893097;29;19915;-92
2023/07/01 12:52:19;;;;;;;;;;;25.70;50.30;;;;;;4889815;29;20237;-92
2023/07/01 12:54:45;;;;;;;;;;;25.70;50.30;;;;;;4889682;29;19922;-92
2023/07/01 12:57:10;;;;;;;;;;;25.70;50.30;;;;;;4890495;29;19911;-92
2023/07/01 12:59:36;;;;;;;;;;;25.70;50.30;;;;;;4890218;29;19911;-91
2023/07/01 13:02:02;;;;;;;;;;;25.70;50.40;;;;;;4892619;29;20017;-92
2023/07/01 13:04:29;;;;;;;;;;;25.70;50.40;;;;;;4890472;29;19912;-92
2023/07/01 13:06:54;;;;;;;;;;;25.70;50.40;;;;;;4893255;29;20304;-92
2023/07/01 13:09:34;;;;;;;;;;;25.70;50.40;;;;;;4891636;29;19919;-93
2023/07/01 13:12:00;;;;;;;;;;;25.70;50.40;;;;;;4896238;29;19916;-93
2023/07/01 13:14:26;;;;;;;;;;;25.70;50.40;;;;;;4888748;29;19911;-92
2023/07/01 13:16:51;;;;;;;;;;;25.70;50.40;;;;;;4889918;29;19970;-92
2023/07/01 13:19:19;;;;;;;;;;;25.70;50.50;;;;;;4889179;29;19912;-92
2023/07/01 13:21:46;;;;;;;;;;;25.70;50.50;;;;;;4887958;29;19915;-92
2023/07/01 13:24:13;;;;;;;;;;;25.70;50.40;;;;;;4885148;29;19911;-92
2023/07/01 13:26:40;;;;;;;;;;;25.70;50.40;;;;;;4890875;29;19963;-93
2023/07/01 13:29:08;;;;;;;;;;;25.80;50.40;;;;;;4889966;29;19919;-92
2023/07/01 13:31:34;;;;;;;;;;;25.80;50.40;;;;;;4891952;29;19911;-92
2023/07/01 13:34:01;;;;;;;;;;;25.80;50.30;;;;;;4890644;29;19983;-93
2023/07/01 13:36:27;;;;;;;;;;;25.90;50.30;;;;;;4891969;29;19912;-92
2023/07/01 13:38:52;;;;;;;;;;;25.90;50.30;;;;;;4890771;29;19912;-92
2023/07/01 13:41:24;;;;;;;;;;;25.90;50.30;;;;;;4893685;29;20218;-92
2023/07/01 13:44:03;;;;;;;;;;;25.90;50.30;;;;;;4886409;29;20022;-92
2023/07/01 13:46:34;;;;;;;;;;;25.90;50.30;;;;;;4880331;29;20296;-93
2023/07/01 13:49:00;;;;;;;;;;;25.90;50.30;;;;;;4892090;29;19911;-92
2023/07/01 13:51:29;;;;;;;;;;;25.90;50.30;;;;;;4886780;29;19923;-92
2023/07/01 13:53:57;;;;;;;;;;;25.90;50.30;;;;;;4879431;29;19921;-92
2023/07/01 13:56:22;;;;;;;;;;;25.90;50.30;;;;;;4887525;29;19916;-93
2023/07/01 13:58:48;;;;;;;;;;;25.90;50.30;;;;;;4888270;29;19918;-92
2023/07/01 14:01:14;;;;;;;;;;;25.90;50.30;;;;;;4889978;29;20387;-92
2023/07/01 14:03:45;;;;;;;;;;;25.90;50.30;;;;;;4888621;29;20060;-92
2023/07/01 14:06:11;;;;;;;;;;;25.90;50.30;;;;;;4881719;29;19939;-92
2023/07/01 14:08:37;;;;;;;;;;;25.90;50.30;;;;;;4891286;29;20155;-91
2023/07/01 14:11:03;;;;;;;;;;;25.90;50.30;;;;;;4894823;29;20000;-91
2023/07/01 14:13:29;;;;;;;;;;;26.00;50.40;;;;;;4881789;29;19915;-92
2023/07/01 14:15:55;;;;;;;;;;;26.00;50.30;;;;;;4893382;29;20150;-91